sensor_id;sensor_type;location;lat;lon;timestamp;pressure;altitude;pressure_sealevel;temperature;humidity
55990;BME280;41875;55.806;38.082;2022-10-16T00:01:46;100582.69;;;6.92;56.46
55990;BME280;41875;55.806;38.082;2022-10-16T00:04:15;100577.09;;;6.34;57.65
55990;BME280;41875;55.806;38.082;2022-10-16T00:06:43;100583.69;;;6.65;57.21
55990;BME280;41875;55.806;38.082;2022-10-16T00:09:11;100580.66;;;6.96;56.78
55990;BME280;41875;55.806;38.082;2022-10-16T00:11:40;100590.38;;;6.95;56.29
55990;BME280;41875;55.806;38.082;2022-10-16T00:14:12;100587.78;;;7.20;55.84
55990;BME280;41875;55.806;38.082;2022-10-16T00:16:41;100586.94;;;6.69;57.08
55990;BME280;41875;55.806;38.082;2022-10-16T00:19:10;100591.16;;;6.46;57.34
55990;BME280;41875;55.806;38.082;2022-10-16T00:21:39;100591.09;;;6.47;57.64
55990;BME280;41875;55.806;38.082;2022-10-16T00:24:26;100593.59;;;6.23;58.21
55990;BME280;41875;55.806;38.082;2022-10-16T00:26:57;100588.75;;;6.68;57.20
55990;BME280;41875;55.806;38.082;2022-10-16T00:29:27;100592.63;;;6.11;58.35
55990;BME280;41875;55.806;38.082;2022-10-16T00:31:56;100588.53;;;6.20;58.36
55990;BME280;41875;55.806;38.082;2022-10-16T00:34:25;100583.50;;;6.30;58.14
55990;BME280;41875;55.806;38.082;2022-10-16T00:36:53;100587.69;;;6.32;58.01
55990;BME280;41875;55.806;38.082;2022-10-16T00:39:22;100589.19;;;6.10;58.34
55990;BME280;41875;55.806;38.082;2022-10-16T00:41:51;100597.47;;;6.30;57.68
55990;BME280;41875;55.806;38.082;2022-10-16T00:44:44;100600.53;;;6.11;58.63
55990;BME280;41875;55.806;38.082;2022-10-16T00:47:17;100594.88;;;6.17;58.15
55990;BME280;41875;55.806;38.082;2022-10-16T00:49:48;100594.31;;;6.38;57.81
55990;BME280;41875;55.806;38.082;2022-10-16T00:52:18;100598.31;;;6.05;58.28
55990;BME280;41875;55.806;38.082;2022-10-16T00:54:49;100587.69;;;6.06;58.16
55990;BME280;41875;55.806;38.082;2022-10-16T00:57:18;100597.34;;;6.06;58.68
55990;BME280;41875;55.806;38.082;2022-10-16T00:59:48;100602.09;;;6.01;58.53
55990;BME280;41875;55.806;38.082;2022-10-16T01:02:17;100603.16;;;6.11;57.98
55990;BME280;41875;55.806;38.082;2022-10-16T01:04:48;100606.22;;;5.90;58.97
55990;BME280;41875;55.806;38.082;2022-10-16T01:07:27;100590.19;;;6.08;58.67
55990;BME280;41875;55.806;38.082;2022-10-16T01:10:07;100604.63;;;6.02;58.65
55990;BME280;41875;55.806;38.082;2022-10-16T01:12:41;100605.66;;;6.13;58.39
55990;BME280;41875;55.806;38.082;2022-10-16T01:15:18;100611.59;;;5.89;58.76
55990;BME280;41875;55.806;38.082;2022-10-16T01:17:57;100611.09;;;5.97;58.61
55990;BME280;41875;55.806;38.082;2022-10-16T01:20:30;100616.00;;;6.03;58.27
55990;BME280;41875;55.806;38.082;2022-10-16T01:23:06;100614.63;;;6.10;57.88
55990;BME280;41875;55.806;38.082;2022-10-16T01:25:55;100609.69;;;6.05;57.73
55990;BME280;41875;55.806;38.082;2022-10-16T01:28:36;100620.00;;;6.08;57.71
55990;BME280;41875;55.806;38.082;2022-10-16T01:31:08;100619.81;;;5.84;58.42
55990;BME280;41875;55.806;38.082;2022-10-16T01:33:41;100625.66;;;5.75;58.55
55990;BME280;41875;55.806;38.082;2022-10-16T01:36:14;100623.03;;;6.02;58.01
55990;BME280;41875;55.806;38.082;2022-10-16T01:38:48;100618.66;;;5.88;58.22
55990;BME280;41875;55.806;38.082;2022-10-16T01:41:22;100625.06;;;5.84;58.60
55990;BME280;41875;55.806;38.082;2022-10-16T01:43:57;100624.50;;;5.79;58.81
55990;BME280;41875;55.806;38.082;2022-10-16T01:46:30;100618.66;;;5.88;58.25
55990;BME280;41875;55.806;38.082;2022-10-16T01:49:00;100622.38;;;5.99;58.02
55990;BME280;41875;55.806;38.082;2022-10-16T01:51:30;100620.25;;;5.91;58.17
55990;BME280;41875;55.806;38.082;2022-10-16T01:54:01;100626.44;;;5.90;57.85
55990;BME280;41875;55.806;38.082;2022-10-16T01:56:30;100626.19;;;5.80;58.04
55990;BME280;41875;55.806;38.082;2022-10-16T01:59:05;100636.06;;;5.49;59.10
55990;BME280;41875;55.806;38.082;2022-10-16T02:01:36;100642.53;;;5.85;58.75
55990;BME280;41875;55.806;38.082;2022-10-16T02:04:09;100643.47;;;5.57;59.20
55990;BME280;41875;55.806;38.082;2022-10-16T02:06:39;100641.41;;;5.75;58.64
55990;BME280;41875;55.806;38.082;2022-10-16T02:09:07;100643.22;;;5.74;58.66
55990;BME280;41875;55.806;38.082;2022-10-16T02:11:36;100640.34;;;5.92;58.28
55990;BME280;41875;55.806;38.082;2022-10-16T02:14:06;100634.84;;;5.82;58.14
55990;BME280;41875;55.806;38.082;2022-10-16T02:16:38;100640.63;;;6.02;57.91
55990;BME280;41875;55.806;38.082;2022-10-16T02:19:12;100626.75;;;5.85;58.10
55990;BME280;41875;55.806;38.082;2022-10-16T02:21:46;100634.00;;;5.54;58.95
55990;BME280;41875;55.806;38.082;2022-10-16T02:24:21;100632.63;;;5.48;58.79
55990;BME280;41875;55.806;38.082;2022-10-16T02:27:00;100641.59;;;5.59;58.71
55990;BME280;41875;55.806;38.082;2022-10-16T02:29:36;100640.91;;;5.28;59.37
55990;BME280;41875;55.806;38.082;2022-10-16T02:32:08;100651.75;;;4.94;60.50
55990;BME280;41875;55.806;38.082;2022-10-16T02:34:39;100643.88;;;4.94;60.37
55990;BME280;41875;55.806;38.082;2022-10-16T02:37:09;100653.63;;;4.78;61.12
55990;BME280;41875;55.806;38.082;2022-10-16T02:39:37;100653.91;;;4.87;60.68
55990;BME280;41875;55.806;38.082;2022-10-16T02:42:09;100649.19;;;4.64;61.46
55990;BME280;41875;55.806;38.082;2022-10-16T02:44:40;100656.28;;;4.47;61.93
55990;BME280;41875;55.806;38.082;2022-10-16T02:47:08;100648.56;;;4.75;60.93
55990;BME280;41875;55.806;38.082;2022-10-16T02:49:38;100645.47;;;4.68;61.33
55990;BME280;41875;55.806;38.082;2022-10-16T02:52:06;100654.38;;;4.65;61.50
55990;BME280;41875;55.806;38.082;2022-10-16T02:54:37;100649.09;;;4.51;61.38
55990;BME280;41875;55.806;38.082;2022-10-16T02:57:08;100653.78;;;4.60;61.48
55990;BME280;41875;55.806;38.082;2022-10-16T02:59:36;100655.94;;;4.53;61.74
55990;BME280;41875;55.806;38.082;2022-10-16T03:02:06;100651.34;;;4.86;60.86
55990;BME280;41875;55.806;38.082;2022-10-16T03:04:34;100652.75;;;4.77;61.08
55990;BME280;41875;55.806;38.082;2022-10-16T03:07:03;100659.34;;;4.84;60.72
55990;BME280;41875;55.806;38.082;2022-10-16T03:09:31;100653.81;;;4.89;61.03
55990;BME280;41875;55.806;38.082;2022-10-16T03:12:00;100658.47;;;4.69;61.47
55990;BME280;41875;55.806;38.082;2022-10-16T03:14:28;100658.91;;;4.47;61.80
55990;BME280;41875;55.806;38.082;2022-10-16T03:17:02;100667.88;;;3.98;62.98
55990;BME280;41875;55.806;38.082;2022-10-16T03:19:32;100661.09;;;4.10;62.67
55990;BME280;41875;55.806;38.082;2022-10-16T03:22:01;100659.50;;;4.07;62.79
55990;BME280;41875;55.806;38.082;2022-10-16T03:24:30;100664.69;;;4.23;62.33
55990;BME280;41875;55.806;38.082;2022-10-16T03:26:58;100664.06;;;4.34;62.10
55990;BME280;41875;55.806;38.082;2022-10-16T03:29:26;100663.75;;;4.24;61.95
55990;BME280;41875;55.806;38.082;2022-10-16T03:31:56;100669.72;;;4.12;62.56
55990;BME280;41875;55.806;38.082;2022-10-16T03:34:29;100667.63;;;4.03;62.92
55990;BME280;41875;55.806;38.082;2022-10-16T03:36:59;100674.22;;;3.94;63.32
55990;BME280;41875;55.806;38.082;2022-10-16T03:39:28;100671.81;;;3.91;64.00
55990;BME280;41875;55.806;38.082;2022-10-16T03:41:56;100675.69;;;3.84;63.63
55990;BME280;41875;55.806;38.082;2022-10-16T03:44:25;100677.22;;;4.18;62.92
55990;BME280;41875;55.806;38.082;2022-10-16T03:46:53;100662.88;;;4.54;61.24
55990;BME280;41875;55.806;38.082;2022-10-16T03:49:22;100678.66;;;4.69;60.94
55990;BME280;41875;55.806;38.082;2022-10-16T03:51:50;100677.03;;;4.52;61.08
55990;BME280;41875;55.806;38.082;2022-10-16T03:54:20;100675.81;;;4.57;61.03
55990;BME280;41875;55.806;38.082;2022-10-16T03:56:50;100673.84;;;4.47;61.06
55990;BME280;41875;55.806;38.082;2022-10-16T03:59:18;100669.63;;;4.44;61.24
55990;BME280;41875;55.806;38.082;2022-10-16T04:01:47;100684.19;;;4.34;61.61
55990;BME280;41875;55.806;38.082;2022-10-16T04:04:15;100679.00;;;4.77;60.27
55990;BME280;41875;55.806;38.082;2022-10-16T04:06:44;100684.47;;;4.74;60.27
55990;BME280;41875;55.806;38.082;2022-10-16T04:09:12;100680.72;;;4.93;59.63
55990;BME280;41875;55.806;38.082;2022-10-16T04:11:42;100677.25;;;4.78;59.98
55990;BME280;41875;55.806;38.082;2022-10-16T04:14:11;100684.13;;;4.35;61.10
55990;BME280;41875;55.806;38.082;2022-10-16T04:16:40;100683.69;;;4.57;60.71
55990;BME280;41875;55.806;38.082;2022-10-16T04:19:09;100680.72;;;4.93;59.42
55990;BME280;41875;55.806;38.082;2022-10-16T04:21:37;100672.00;;;4.92;59.52
55990;BME280;41875;55.806;38.082;2022-10-16T04:24:06;100681.19;;;4.85;59.67
55990;BME280;41875;55.806;38.082;2022-10-16T04:26:34;100670.22;;;4.93;59.77
55990;BME280;41875;55.806;38.082;2022-10-16T04:29:06;100681.56;;;4.79;59.68
55990;BME280;41875;55.806;38.082;2022-10-16T04:31:39;100684.28;;;4.92;59.68
55990;BME280;41875;55.806;38.082;2022-10-16T04:34:08;100679.41;;;5.14;58.65
55990;BME280;41875;55.806;38.082;2022-10-16T04:36:36;100680.97;;;5.17;59.02
55990;BME280;41875;55.806;38.082;2022-10-16T04:39:05;100685.09;;;5.36;58.31
55990;BME280;41875;55.806;38.082;2022-10-16T04:41:33;100689.81;;;5.01;59.11
55990;BME280;41875;55.806;38.082;2022-10-16T04:44:02;100689.31;;;5.24;58.76
55990;BME280;41875;55.806;38.082;2022-10-16T04:46:32;100691.66;;;5.43;58.58
55990;BME280;41875;55.806;38.082;2022-10-16T04:49:00;100673.81;;;5.48;58.00
55990;BME280;41875;55.806;38.082;2022-10-16T04:51:29;100691.81;;;5.54;57.95
55990;BME280;41875;55.806;38.082;2022-10-16T04:53:57;100690.03;;;5.55;58.20
55990;BME280;41875;55.806;38.082;2022-10-16T04:56:28;100690.25;;;5.79;57.09
55990;BME280;41875;55.806;38.082;2022-10-16T04:58:56;100690.00;;;5.97;56.74
55990;BME280;41875;55.806;38.082;2022-10-16T05:01:25;100694.41;;;5.69;57.65
55990;BME280;41875;55.806;38.082;2022-10-16T05:03:55;100688.72;;;5.89;57.43
55990;BME280;41875;55.806;38.082;2022-10-16T05:06:23;100696.31;;;5.67;58.08
55990;BME280;41875;55.806;38.082;2022-10-16T05:08:52;100697.44;;;5.62;58.03
55990;BME280;41875;55.806;38.082;2022-10-16T05:11:23;100680.88;;;5.75;57.96
55990;BME280;41875;55.806;38.082;2022-10-16T05:13:51;100688.75;;;5.75;58.03
55990;BME280;41875;55.806;38.082;2022-10-16T05:16:22;100697.94;;;5.82;58.30
55990;BME280;41875;55.806;38.082;2022-10-16T05:18:51;100695.66;;;5.63;59.10
55990;BME280;41875;55.806;38.082;2022-10-16T05:21:31;100699.19;;;5.76;59.07
55990;BME280;41875;55.806;38.082;2022-10-16T05:24:00;100694.31;;;5.98;58.40
55990;BME280;41875;55.806;38.082;2022-10-16T05:26:28;100697.47;;;6.17;57.89
55990;BME280;41875;55.806;38.082;2022-10-16T05:28:57;100700.00;;;6.19;57.90
55990;BME280;41875;55.806;38.082;2022-10-16T05:31:25;100697.94;;;5.82;59.32
55990;BME280;41875;55.806;38.082;2022-10-16T05:33:58;100707.41;;;5.85;59.16
55990;BME280;41875;55.806;38.082;2022-10-16T05:36:27;100711.63;;;6.02;59.04
55990;BME280;41875;55.806;38.082;2022-10-16T05:39:03;100711.97;;;6.10;59.14
55990;BME280;41875;55.806;38.082;2022-10-16T05:41:32;100718.78;;;6.00;59.95
55990;BME280;41875;55.806;38.082;2022-10-16T05:44:04;100718.75;;;6.27;59.16
55990;BME280;41875;55.806;38.082;2022-10-16T05:46:33;100710.81;;;6.14;59.34
55990;BME280;41875;55.806;38.082;2022-10-16T05:49:02;100717.47;;;6.20;59.58
55990;BME280;41875;55.806;38.082;2022-10-16T05:51:30;100720.22;;;6.31;59.69
55990;BME280;41875;55.806;38.082;2022-10-16T05:53:59;100719.31;;;6.45;59.14
55990;BME280;41875;55.806;38.082;2022-10-16T05:56:28;100722.81;;;6.59;59.23
55990;BME280;41875;55.806;38.082;2022-10-16T05:58:57;100730.41;;;6.63;58.73
55990;BME280;41875;55.806;38.082;2022-10-16T06:01:25;100730.19;;;6.92;57.90
55990;BME280;41875;55.806;38.082;2022-10-16T06:03:54;100731.78;;;7.08;56.80
55990;BME280;41875;55.806;38.082;2022-10-16T06:06:24;100725.97;;;7.15;56.69
55990;BME280;41875;55.806;38.082;2022-10-16T06:08:55;100725.22;;;7.39;56.50
55990;BME280;41875;55.806;38.082;2022-10-16T06:11:26;100731.75;;;7.33;57.18
55990;BME280;41875;55.806;38.082;2022-10-16T06:14:01;100727.88;;;7.39;56.84
55990;BME280;41875;55.806;38.082;2022-10-16T06:16:34;100733.22;;;7.38;56.64
55990;BME280;41875;55.806;38.082;2022-10-16T06:19:04;100727.63;;;7.42;56.85
55990;BME280;41875;55.806;38.082;2022-10-16T06:21:33;100735.50;;;7.55;56.13
55990;BME280;41875;55.806;38.082;2022-10-16T06:24:02;100724.31;;;7.89;55.81
55990;BME280;41875;55.806;38.082;2022-10-16T06:26:31;100718.81;;;7.68;55.78
55990;BME280;41875;55.806;38.082;2022-10-16T06:29:03;100734.03;;;7.51;56.25
55990;BME280;41875;55.806;38.082;2022-10-16T06:31:31;100730.50;;;7.76;55.89
55990;BME280;41875;55.806;38.082;2022-10-16T06:34:03;100738.34;;;7.65;56.25
55990;BME280;41875;55.806;38.082;2022-10-16T06:36:36;100740.63;;;8.07;54.91
55990;BME280;41875;55.806;38.082;2022-10-16T06:39:05;100732.69;;;8.31;54.46
55990;BME280;41875;55.806;38.082;2022-10-16T06:41:34;100739.19;;;8.14;54.66
55990;BME280;41875;55.806;38.082;2022-10-16T06:44:16;100733.69;;;7.93;55.38
55990;BME280;41875;55.806;38.082;2022-10-16T06:46:59;100743.03;;;7.86;55.38
55990;BME280;41875;55.806;38.082;2022-10-16T06:49:28;100733.56;;;8.79;52.64
55990;BME280;41875;55.806;38.082;2022-10-16T06:51:59;100738.25;;;7.91;55.17
55990;BME280;41875;55.806;38.082;2022-10-16T06:54:28;100742.41;;;8.66;53.40
55990;BME280;41875;55.806;38.082;2022-10-16T06:57:07;100747.09;;;8.63;53.23
55990;BME280;41875;55.806;38.082;2022-10-16T06:59:37;100747.63;;;8.44;53.40
55990;BME280;41875;55.806;38.082;2022-10-16T07:02:11;100747.13;;;8.85;52.46
55990;BME280;41875;55.806;38.082;2022-10-16T07:04:41;100748.50;;;8.91;52.29
55990;BME280;41875;55.806;38.082;2022-10-16T07:07:10;100752.47;;;8.97;52.57
55990;BME280;41875;55.806;38.082;2022-10-16T07:09:42;100761.19;;;8.75;52.90
55990;BME280;41875;55.806;38.082;2022-10-16T07:12:10;100749.59;;;9.34;51.37
55990;BME280;41875;55.806;38.082;2022-10-16T07:14:40;100749.47;;;9.47;50.64
55990;BME280;41875;55.806;38.082;2022-10-16T07:17:09;100760.31;;;9.21;52.22
55990;BME280;41875;55.806;38.082;2022-10-16T07:19:38;100753.44;;;9.30;51.87
55990;BME280;41875;55.806;38.082;2022-10-16T07:22:06;100755.84;;;9.56;50.55
55990;BME280;41875;55.806;38.082;2022-10-16T07:24:34;100765.09;;;9.16;51.88
55990;BME280;41875;55.806;38.082;2022-10-16T07:27:03;100771.09;;;9.29;51.84
55990;BME280;41875;55.806;38.082;2022-10-16T07:29:32;100766.44;;;9.44;51.07
55990;BME280;41875;55.806;38.082;2022-10-16T07:32:01;100769.28;;;9.64;50.87
55990;BME280;41875;55.806;38.082;2022-10-16T07:34:30;100770.88;;;10.11;49.48
55990;BME280;41875;55.806;38.082;2022-10-16T07:36:59;100767.84;;;10.15;49.57
55990;BME280;41875;55.806;38.082;2022-10-16T07:39:27;100762.13;;;9.99;49.45
55990;BME280;41875;55.806;38.082;2022-10-16T07:41:55;100757.53;;;11.08;47.19
55990;BME280;41875;55.806;38.082;2022-10-16T07:44:24;100762.41;;;10.82;47.92
55990;BME280;41875;55.806;38.082;2022-10-16T07:46:52;100768.63;;;10.39;49.26
55990;BME280;41875;55.806;38.082;2022-10-16T07:49:22;100754.78;;;10.89;47.77
55990;BME280;41875;55.806;38.082;2022-10-16T07:51:51;100757.31;;;10.90;47.13
55990;BME280;41875;55.806;38.082;2022-10-16T07:54:19;100750.66;;;11.27;46.22
55990;BME280;41875;55.806;38.082;2022-10-16T07:56:48;100739.00;;;10.66;47.37
55990;BME280;41875;55.806;38.082;2022-10-16T07:59:16;100748.94;;;10.95;47.29
55990;BME280;41875;55.806;38.082;2022-10-16T08:01:46;100748.72;;;11.89;44.74
55990;BME280;41875;55.806;38.082;2022-10-16T08:04:14;100737.59;;;11.45;45.60
55990;BME280;41875;55.806;38.082;2022-10-16T08:06:44;100747.91;;;10.86;47.32
55990;BME280;41875;55.806;38.082;2022-10-16T08:09:13;100752.50;;;11.05;46.86
55990;BME280;41875;55.806;38.082;2022-10-16T08:11:41;100751.41;;;11.08;46.64
55990;BME280;41875;55.806;38.082;2022-10-16T08:14:10;100736.50;;;10.64;47.69
55990;BME280;41875;55.806;38.082;2022-10-16T08:16:38;100745.00;;;11.51;45.12
55990;BME280;41875;55.806;38.082;2022-10-16T08:19:07;100748.41;;;11.22;46.23
55990;BME280;41875;55.806;38.082;2022-10-16T08:21:35;100732.88;;;12.19;43.83
55990;BME280;41875;55.806;38.082;2022-10-16T08:24:07;100760.53;;;10.94;46.75
55990;BME280;41875;55.806;38.082;2022-10-16T08:26:36;100753.13;;;11.59;45.03
55990;BME280;41875;55.806;38.082;2022-10-16T08:29:04;100749.06;;;11.46;45.39
55990;BME280;41875;55.806;38.082;2022-10-16T08:31:33;100747.31;;;11.76;45.08
55990;BME280;41875;55.806;38.082;2022-10-16T08:34:01;100758.88;;;12.55;43.41
55990;BME280;41875;55.806;38.082;2022-10-16T08:36:30;100750.88;;;12.74;42.79
55990;BME280;41875;55.806;38.082;2022-10-16T08:38:58;100749.78;;;12.38;42.78
55990;BME280;41875;55.806;38.082;2022-10-16T08:44:39;100747.81;;;12.59;42.91
55990;BME280;41875;55.806;38.082;2022-10-16T08:47:17;100756.34;;;12.53;42.67
55990;BME280;41875;55.806;38.082;2022-10-16T08:49:55;100751.00;;;12.83;42.10
55990;BME280;41875;55.806;38.082;2022-10-16T08:52:25;100756.25;;;13.12;41.12
55990;BME280;41875;55.806;38.082;2022-10-16T08:54:57;100750.06;;;13.11;40.98
55990;BME280;41875;55.806;38.082;2022-10-16T08:57:27;100751.09;;;13.01;41.33
55990;BME280;41875;55.806;38.082;2022-10-16T09:00:00;100741.44;;;13.00;41.34
55990;BME280;41875;55.806;38.082;2022-10-16T09:02:36;100751.16;;;13.29;40.42
55990;BME280;41875;55.806;38.082;2022-10-16T09:05:30;100746.22;;;12.86;41.75
55990;BME280;41875;55.806;38.082;2022-10-16T09:08:08;100742.38;;;12.51;41.83
55990;BME280;41875;55.806;38.082;2022-10-16T09:10:45;100749.91;;;12.26;42.48
55990;BME280;41875;55.806;38.082;2022-10-16T09:13:24;100749.91;;;12.26;42.67
55990;BME280;41875;55.806;38.082;2022-10-16T09:16:01;100741.66;;;12.29;42.05
55990;BME280;41875;55.806;38.082;2022-10-16T09:18:38;100750.91;;;13.12;41.07
55990;BME280;41875;55.806;38.082;2022-10-16T09:21:13;100745.38;;;12.95;41.05
55990;BME280;41875;55.806;38.082;2022-10-16T09:23:47;100749.75;;;12.67;41.49
55990;BME280;41875;55.806;38.082;2022-10-16T09:26:18;100743.28;;;13.27;40.28
55990;BME280;41875;55.806;38.082;2022-10-16T09:28:52;100747.19;;;13.33;40.26
55990;BME280;41875;55.806;38.082;2022-10-16T09:31:22;100749.75;;;13.24;40.44
55990;BME280;41875;55.806;38.082;2022-10-16T09:33:54;100741.13;;;13.50;40.07
55990;BME280;41875;55.806;38.082;2022-10-16T09:36:23;100736.19;;;13.55;39.55
55990;BME280;41875;55.806;38.082;2022-10-16T09:39:03;100744.41;;;13.62;39.47
55990;BME280;41875;55.806;38.082;2022-10-16T09:41:34;100737.91;;;13.75;39.24
55990;BME280;41875;55.806;38.082;2022-10-16T09:44:14;100733.25;;;13.21;40.12
55990;BME280;41875;55.806;38.082;2022-10-16T09:46:44;100733.13;;;13.13;39.99
55990;BME280;41875;55.806;38.082;2022-10-16T09:49:20;100732.31;;;13.50;40.10
55990;BME280;41875;55.806;38.082;2022-10-16T09:51:51;100742.81;;;13.69;39.31
55990;BME280;41875;55.806;38.082;2022-10-16T09:54:21;100743.25;;;13.37;40.10
55990;BME280;41875;55.806;38.082;2022-10-16T09:56:49;100736.09;;;13.75;39.45
55990;BME280;41875;55.806;38.082;2022-10-16T09:59:21;100728.56;;;13.89;39.20
55990;BME280;41875;55.806;38.082;2022-10-16T10:01:54;100729.47;;;13.79;38.95
55990;BME280;41875;55.806;38.082;2022-10-16T10:04:24;100727.81;;;13.96;38.42
55990;BME280;41875;55.806;38.082;2022-10-16T10:06:56;100735.03;;;13.86;38.68
55990;BME280;41875;55.806;38.082;2022-10-16T10:09:26;100724.31;;;14.14;38.15
55990;BME280;41875;55.806;38.082;2022-10-16T10:11:56;100721.94;;;13.93;38.18
55990;BME280;41875;55.806;38.082;2022-10-16T10:14:31;100734.50;;;13.82;38.47
55990;BME280;41875;55.806;38.082;2022-10-16T10:17:15;100714.09;;;14.09;37.67
55990;BME280;41875;55.806;38.082;2022-10-16T10:19:50;100729.81;;;14.57;36.58
55990;BME280;41875;55.806;38.082;2022-10-16T10:22:39;100717.56;;;14.46;36.77
55990;BME280;41875;55.806;38.082;2022-10-16T10:25:35;100707.84;;;14.81;36.01
55990;BME280;41875;55.806;38.082;2022-10-16T10:28:18;100711.50;;;14.36;36.94
55990;BME280;41875;55.806;38.082;2022-10-16T10:30:56;100712.50;;;14.35;37.42
55990;BME280;41875;55.806;38.082;2022-10-16T10:33:37;100716.78;;;14.27;37.09
55990;BME280;41875;55.806;38.082;2022-10-16T10:36:21;100709.22;;;14.41;36.68
55990;BME280;41875;55.806;38.082;2022-10-16T10:38:54;100715.03;;;14.36;37.00
55990;BME280;41875;55.806;38.082;2022-10-16T10:41:53;100716.19;;;14.60;36.71
55990;BME280;41875;55.806;38.082;2022-10-16T10:44:39;100714.88;;;14.64;36.16
55990;BME280;41875;55.806;38.082;2022-10-16T10:47:20;100712.91;;;14.66;36.12
55990;BME280;41875;55.806;38.082;2022-10-16T10:49:58;100701.69;;;14.36;36.25
55990;BME280;41875;55.806;38.082;2022-10-16T10:52:38;100704.41;;;14.89;35.55
55990;BME280;41875;55.806;38.082;2022-10-16T10:55:16;100707.19;;;14.61;36.19
55990;BME280;41875;55.806;38.082;2022-10-16T10:58:00;100700.28;;;14.50;36.27
55990;BME280;41875;55.806;38.082;2022-10-16T11:00:42;100700.94;;;14.70;36.07
55990;BME280;41875;55.806;38.082;2022-10-16T11:03:32;100698.91;;;13.55;37.42
55990;BME280;41875;55.806;38.082;2022-10-16T11:06:05;100705.03;;;14.20;36.98
55990;BME280;41875;55.806;38.082;2022-10-16T11:08:37;100691.25;;;14.43;36.23
55990;BME280;41875;55.806;38.082;2022-10-16T11:11:16;100686.34;;;14.38;36.17
55990;BME280;41875;55.806;38.082;2022-10-16T11:13:54;100690.44;;;13.88;37.31
55990;BME280;41875;55.806;38.082;2022-10-16T11:16:27;100683.97;;;14.09;36.67
55990;BME280;41875;55.806;38.082;2022-10-16T11:19:02;100686.94;;;14.06;36.83
55990;BME280;41875;55.806;38.082;2022-10-16T11:21:38;100680.00;;;13.95;36.91
55990;BME280;41875;55.806;38.082;2022-10-16T11:24:15;100677.06;;;14.42;36.47
55990;BME280;41875;55.806;38.082;2022-10-16T11:26:48;100680.81;;;14.31;36.23
55990;BME280;41875;55.806;38.082;2022-10-16T11:29:23;100684.06;;;14.43;36.18
55990;BME280;41875;55.806;38.082;2022-10-16T11:31:59;100680.66;;;14.15;36.37
55990;BME280;41875;55.806;38.082;2022-10-16T11:34:39;100687.63;;;14.08;36.47
55990;BME280;41875;55.806;38.082;2022-10-16T11:37:12;100679.91;;;14.41;35.85
55990;BME280;41875;55.806;38.082;2022-10-16T11:39:45;100676.94;;;14.26;36.34
55990;BME280;41875;55.806;38.082;2022-10-16T11:42:20;100669.28;;;14.49;36.11
55990;BME280;41875;55.806;38.082;2022-10-16T11:44:55;100676.38;;;14.40;36.05
55990;BME280;41875;55.806;38.082;2022-10-16T11:47:34;100674.31;;;14.52;35.96
55990;BME280;41875;55.806;38.082;2022-10-16T11:50:31;100670.78;;;14.07;37.08
55990;BME280;41875;55.806;38.082;2022-10-16T11:53:04;100662.56;;;13.82;37.36
55990;BME280;41875;55.806;38.082;2022-10-16T11:55:40;100660.88;;;13.99;37.07
55990;BME280;41875;55.806;38.082;2022-10-16T11:58:20;100665.19;;;14.37;36.21
55990;BME280;41875;55.806;38.082;2022-10-16T12:00:59;100663.78;;;13.88;37.40
55990;BME280;41875;55.806;38.082;2022-10-16T12:03:35;100661.75;;;14.00;37.39
55990;BME280;41875;55.806;38.082;2022-10-16T12:06:25;100670.56;;;14.18;37.13
55990;BME280;41875;55.806;38.082;2022-10-16T12:08:59;100677.66;;;14.54;36.11
55990;BME280;41875;55.806;38.082;2022-10-16T12:11:34;100676.66;;;13.93;37.43
55990;BME280;41875;55.806;38.082;2022-10-16T12:14:16;100662.66;;;13.72;37.47
55990;BME280;41875;55.806;38.082;2022-10-16T12:16:54;100659.09;;;14.00;37.48
55990;BME280;41875;55.806;38.082;2022-10-16T12:19:25;100662.22;;;13.95;37.37
55990;BME280;41875;55.806;38.082;2022-10-16T12:21:57;100654.59;;;13.82;37.22
55990;BME280;41875;55.806;38.082;2022-10-16T12:24:35;100669.66;;;13.55;37.90
55990;BME280;41875;55.806;38.082;2022-10-16T12:27:17;100669.22;;;14.41;36.46
55990;BME280;41875;55.806;38.082;2022-10-16T12:29:54;100666.97;;;14.28;36.50
55990;BME280;41875;55.806;38.082;2022-10-16T12:32:30;100657.84;;;14.83;35.71
55990;BME280;41875;55.806;38.082;2022-10-16T12:35:19;100662.88;;;14.15;36.83
55990;BME280;41875;55.806;38.082;2022-10-16T12:37:50;100661.97;;;13.89;37.23
55990;BME280;41875;55.806;38.082;2022-10-16T12:40:28;100658.72;;;14.39;36.77
55990;BME280;41875;55.806;38.082;2022-10-16T12:42:58;100660.03;;;14.35;36.62
55990;BME280;41875;55.806;38.082;2022-10-16T12:45:29;100645.50;;;14.11;36.98
55990;BME280;41875;55.806;38.082;2022-10-16T12:48:00;100652.59;;;14.21;36.94
55990;BME280;41875;55.806;38.082;2022-10-16T12:50:33;100645.38;;;14.13;37.19
55990;BME280;41875;55.806;38.082;2022-10-16T12:53:17;100645.69;;;14.10;37.27
55990;BME280;41875;55.806;38.082;2022-10-16T12:55:55;100644.50;;;14.57;36.36
55990;BME280;41875;55.806;38.082;2022-10-16T12:58:35;100643.41;;;14.41;36.69
55990;BME280;41875;55.806;38.082;2022-10-16T13:01:21;100651.59;;;14.22;37.19
55990;BME280;41875;55.806;38.082;2022-10-16T13:04:26;100662.81;;;14.52;36.67
55990;BME280;41875;55.806;38.082;2022-10-16T13:07:13;100656.03;;;14.13;37.50
55990;BME280;41875;55.806;38.082;2022-10-16T13:09:54;100662.63;;;14.27;37.54
55990;BME280;41875;55.806;38.082;2022-10-16T13:12:39;100658.50;;;14.59;36.94
55990;BME280;41875;55.806;38.082;2022-10-16T13:15:29;100651.69;;;14.56;36.87
55990;BME280;41875;55.806;38.082;2022-10-16T13:18:06;100654.81;;;14.52;36.91